Time;durP1;ratioP1;P1;durP2;ratioP2;P2;SDS_P1;SDS_P2;PMS_P1;PMS_P2;Temp;Humidity;BMP_temperature;BMP_pressure;BME280_temperature;BME280_humidity;BME280_pressure;Samples;Min_cycle;Max_cycle;Signal;HPM_P1;HPM_P2
2024/01/25 00:01:06;;;;;;;;;;;;;;;;;;2210286;58;2199;-19
2024/01/25 00:03:37;;;;;;;;;;;;;;;;;;2209343;58;2395;-18
2024/01/25 00:06:07;;;;;;;;;;;;;;;;;;2210797;59;2066;-18
2024/01/25 00:08:38;;;;;;;;;;;;;;;;;;2209556;66;2216;-18
2024/01/25 00:11:09;;;;;;;;;;;;;;;;;;2206972;58;2270;-19
2024/01/25 00:13:39;;;;;;;;;;;;;;;;;;2206219;67;1785;-18
2024/01/25 00:16:10;;;;;;;;;;;;;;;;;;2210809;59;2128;-18
2024/01/25 00:18:40;;;;;;;;;;;;;;;;;;2203186;59;2260;-18
2024/01/25 00:21:10;;;;;;;;;;;;;;;;;;2210492;59;2058;-19
2024/01/25 00:23:40;;;;;;;;;;;;;;;;;;2210009;66;1308;-20
2024/01/25 00:26:11;;;;;;;;;;;;;;;;;;2206376;59;2264;-20
2024/01/25 00:28:41;;;;;;;;;;;;;;;;;;2210527;58;1506;-19
2024/01/25 00:31:11;;;;;;;;;;;;;;;;;;2209677;59;2294;-20
2024/01/25 00:33:41;;;;;;;;;;;;;;;;;;2209492;66;1449;-19
2024/01/25 00:36:12;;;;;;;;;;;;;;;;;;2211248;66;1569;-20
2024/01/25 00:38:42;;;;;;;;;;;;;;;;;;2210343;59;2225;-19
2024/01/25 00:41:14;;;;;;;;;;;;;;;;;;2211167;66;2213;-18
2024/01/25 00:43:45;;;;;;;;;;;;;;;;;;2211309;58;2008;-20
2024/01/25 00:46:15;;;;;;;;;;;;;;;;;;2208813;66;1768;-19
2024/01/25 00:48:46;;;;;;;;;;;;;;;;;;2206599;59;2235;-19
2024/01/25 00:51:19;;;;;;;;;;;;;;;;;;2211385;59;2178;-19
2024/01/25 00:53:50;;;;;;;;;;;;;;;;;;2206599;59;2017;-18
2024/01/25 00:56:20;;;;;;;;;;;;;;;;;;2208298;66;1449;-18
2024/01/25 00:58:50;;;;;;;;;;;;;;;;;;2210384;58;1967;-19
2024/01/25 01:01:22;;;;;;;;;;;;;;;;;;2211076;59;1534;-19
2024/01/25 01:03:53;;;;;;;;;;;;;;;;;;2210661;58;2088;-19
2024/01/25 01:06:24;;;;;;;;;;;;;;;;;;2211680;59;1267;-19
2024/01/25 01:08:54;;;;;;;;;;;;;;;;;;2204447;59;1399;-19
2024/01/25 01:11:25;;;;;;;;;;;;;;;;;;2212216;59;2175;-20
2024/01/25 01:13:55;;;;;;;;;;;;;;;;;;2207065;66;2292;-20
2024/01/25 01:16:25;;;;;;;;;;;;;;;;;;2206753;59;2393;-20
2024/01/25 01:18:56;;;;;;;;;;;;;;;;;;2206818;66;1267;-20
2024/01/25 01:21:26;;;;;;;;;;;;;;;;;;2208050;59;1952;-18
2024/01/25 01:23:56;;;;;;;;;;;;;;;;;;2206714;66;2017;-18
2024/01/25 01:26:26;;;;;;;;;;;;;;;;;;2211797;58;2156;-18
2024/01/25 01:28:57;;;;;;;;;;;;;;;;;;2211179;59;1710;-18
2024/01/25 01:31:27;;;;;;;;;;;;;;;;;;2211602;59;1928;-18
2024/01/25 01:33:58;;;;;;;;;;;;;;;;;;2211250;66;1657;-19
2024/01/25 01:36:28;;;;;;;;;;;;;;;;;;2208990;66;1576;-18
2024/01/25 01:38:58;;;;;;;;;;;;;;;;;;2206398;59;2206;-18
2024/01/25 01:41:28;;;;;;;;;;;;;;;;;;2207381;66;2276;-19
2024/01/25 01:43:59;;;;;;;;;;;;;;;;;;2210425;58;1994;-19
2024/01/25 01:46:29;;;;;;;;;;;;;;;;;;2210997;66;1422;-19
2024/01/25 01:49:00;;;;;;;;;;;;;;;;;;2205773;59;2245;-19
2024/01/25 01:51:31;;;;;;;;;;;;;;;;;;2210720;59;1945;-19
2024/01/25 01:54:02;;;;;;;;;;;;;;;;;;2210639;66;2269;-19
2024/01/25 01:56:33;;;;;;;;;;;;;;;;;;2207984;66;1584;-19
2024/01/25 01:59:08;;;;;;;;;;;;;;;;;;2211020;66;1479;-19
2024/01/25 02:01:39;;;;;;;;;;;;;;;;;;2211161;58;1443;-19
2024/01/25 02:04:09;;;;;;;;;;;;;;;;;;2207505;66;1780;-19
2024/01/25 02:06:42;;;;;;;;;;;;;;;;;;2211087;58;2125;-19
2024/01/25 02:09:12;;;;;;;;;;;;;;;;;;2211352;59;1621;-19
2024/01/25 02:11:43;;;;;;;;;;;;;;;;;;2207698;59;2040;-22
2024/01/25 02:14:13;;;;;;;;;;;;;;;;;;2211247;66;1494;-22
2024/01/25 02:16:45;;;;;;;;;;;;;;;;;;2210380;58;2381;-22
2024/01/25 02:19:15;;;;;;;;;;;;;;;;;;2223126;58;2379;-22
2024/01/25 02:21:45;;;;;;;;;;;;;;;;;;2221968;66;1976;-22
2024/01/25 02:24:16;;;;;;;;;;;;;;;;;;2210955;66;1435;-21
2024/01/25 02:26:46;;;;;;;;;;;;;;;;;;2206173;58;2355;-21
2024/01/25 02:29:16;;;;;;;;;;;;;;;;;;2208262;59;1875;-19
2024/01/25 02:31:47;;;;;;;;;;;;;;;;;;2206191;58;2210;-19
2024/01/25 02:34:17;;;;;;;;;;;;;;;;;;2207529;66;2122;-19
2024/01/25 02:36:47;;;;;;;;;;;;;;;;;;2209912;59;1357;-19
2024/01/25 02:39:17;;;;;;;;;;;;;;;;;;2211518;59;2214;-19
2024/01/25 02:41:48;;;;;;;;;;;;;;;;;;2209339;66;1284;-18
2024/01/25 02:44:18;;;;;;;;;;;;;;;;;;2206554;59;2071;-18
2024/01/25 02:46:48;;;;;;;;;;;;;;;;;;2203670;66;1929;-18
2024/01/25 02:49:18;;;;;;;;;;;;;;;;;;2206634;59;2103;-18
2024/01/25 02:51:49;;;;;;;;;;;;;;;;;;2206617;59;2056;-19
2024/01/25 02:54:19;;;;;;;;;;;;;;;;;;2207351;59;2144;-19
2024/01/25 02:56:49;;;;;;;;;;;;;;;;;;2210386;66;1617;-19
2024/01/25 02:59:19;;;;;;;;;;;;;;;;;;2210675;58;1977;-19
2024/01/25 03:01:50;;;;;;;;;;;;;;;;;;2209017;59;2202;-19
2024/01/25 03:04:20;;;;;;;;;;;;;;;;;;2206890;60;1569;-18
2024/01/25 03:06:50;;;;;;;;;;;;;;;;;;2209390;58;2225;-19
2024/01/25 03:09:23;;;;;;;;;;;;;;;;;;2207723;59;2080;-19
2024/01/25 03:11:54;;;;;;;;;;;;;;;;;;2204974;59;2220;-19
2024/01/25 03:14:24;;;;;;;;;;;;;;;;;;2205056;66;2181;-19
2024/01/25 03:16:54;;;;;;;;;;;;;;;;;;2208846;58;2318;-19
2024/01/25 03:19:25;;;;;;;;;;;;;;;;;;2210993;66;2228;-19
2024/01/25 03:21:56;;;;;;;;;;;;;;;;;;2207107;59;2370;-20
2024/01/25 03:24:26;;;;;;;;;;;;;;;;;;2210977;66;1584;-19
2024/01/25 03:26:56;;;;;;;;;;;;;;;;;;2209332;59;1922;-19
2024/01/25 03:29:26;;;;;;;;;;;;;;;;;;2207324;59;1226;-22
2024/01/25 03:31:57;;;;;;;;;;;;;;;;;;2206579;66;2029;-22
2024/01/25 03:34:27;;;;;;;;;;;;;;;;;;2210477;66;2268;-23
2024/01/25 03:36:57;;;;;;;;;;;;;;;;;;2210216;58;1411;-23
2024/01/25 03:39:27;;;;;;;;;;;;;;;;;;2211677;59;2224;-23
2024/01/25 03:41:58;;;;;;;;;;;;;;;;;;2207235;66;1644;-22
2024/01/25 03:44:28;;;;;;;;;;;;;;;;;;2211728;59;2039;-19
2024/01/25 03:46:58;;;;;;;;;;;;;;;;;;2204451;66;1549;-19
2024/01/25 03:49:28;;;;;;;;;;;;;;;;;;2210892;59;1886;-19
2024/01/25 03:51:59;;;;;;;;;;;;;;;;;;2206111;59;1929;-19
2024/01/25 03:54:29;;;;;;;;;;;;;;;;;;2209083;59;1959;-19
2024/01/25 03:57:00;;;;;;;;;;;;;;;;;;2209799;66;1326;-19
2024/01/25 03:59:30;;;;;;;;;;;;;;;;;;2211150;59;1448;-20
2024/01/25 04:02:00;;;;;;;;;;;;;;;;;;2206324;59;2155;-20
2024/01/25 04:04:30;;;;;;;;;;;;;;;;;;2211221;66;1266;-20
2024/01/25 04:07:00;;;;;;;;;;;;;;;;;;2209200;59;2090;-20
2024/01/25 04:09:31;;;;;;;;;;;;;;;;;;2210638;59;1661;-20
2024/01/25 04:12:01;;;;;;;;;;;;;;;;;;2210253;58;2209;-20
2024/01/25 04:14:31;;;;;;;;;;;;;;;;;;2213036;66;1165;-20
2024/01/25 04:17:01;;;;;;;;;;;;;;;;;;2210598;58;2341;-20
2024/01/25 04:19:32;;;;;;;;;;;;;;;;;;2208225;66;1511;-20
2024/01/25 04:22:02;;;;;;;;;;;;;;;;;;2210532;66;2037;-19
2024/01/25 04:24:33;;;;;;;;;;;;;;;;;;2207913;58;1603;-20
2024/01/25 04:27:04;;;;;;;;;;;;;;;;;;2206772;59;1679;-20
2024/01/25 04:29:34;;;;;;;;;;;;;;;;;;2211354;58;2476;-20
2024/01/25 04:32:04;;;;;;;;;;;;;;;;;;2210936;66;1999;-19
2024/01/25 04:34:35;;;;;;;;;;;;;;;;;;2211346;66;2046;-19
2024/01/25 04:37:05;;;;;;;;;;;;;;;;;;2206357;66;1565;-20
2024/01/25 04:39:36;;;;;;;;;;;;;;;;;;2211512;59;2105;-19
2024/01/25 04:42:06;;;;;;;;;;;;;;;;;;2211042;66;1641;-20
2024/01/25 04:44:36;;;;;;;;;;;;;;;;;;2211399;59;2500;-19
2024/01/25 04:47:06;;;;;;;;;;;;;;;;;;2206954;66;2079;-19
2024/01/25 04:49:37;;;;;;;;;;;;;;;;;;2223670;58;2007;-19
2024/01/25 04:52:07;;;;;;;;;;;;;;;;;;2209928;58;1929;-19
2024/01/25 04:54:37;;;;;;;;;;;;;;;;;;2208227;58;1657;-20
2024/01/25 04:57:07;;;;;;;;;;;;;;;;;;2210635;66;2369;-19
2024/01/25 04:59:38;;;;;;;;;;;;;;;;;;2205324;58;2299;-20
2024/01/25 05:02:08;;;;;;;;;;;;;;;;;;2208475;59;2156;-19
2024/01/25 05:04:39;;;;;;;;;;;;;;;;;;2224594;66;1328;-20
2024/01/25 05:07:09;;;;;;;;;;;;;;;;;;2203514;59;2285;-20
2024/01/25 05:09:39;;;;;;;;;;;;;;;;;;2207160;59;1771;-20
2024/01/25 05:12:09;;;;;;;;;;;;;;;;;;2209664;59;2294;-20
2024/01/25 05:14:40;;;;;;;;;;;;;;;;;;2206610;66;1351;-20
2024/01/25 05:17:10;;;;;;;;;;;;;;;;;;2207039;59;2305;-20
2024/01/25 05:19:40;;;;;;;;;;;;;;;;;;2211462;60;1336;-20
2024/01/25 05:22:10;;;;;;;;;;;;;;;;;;2206981;59;1837;-20
2024/01/25 05:24:41;;;;;;;;;;;;;;;;;;2223742;58;2011;-22
2024/01/25 05:27:11;;;;;;;;;;;;;;;;;;2207002;59;1436;-22
2024/01/25 05:29:41;;;;;;;;;;;;;;;;;;2207606;59;2626;-23
2024/01/25 05:32:11;;;;;;;;;;;;;;;;;;2210011;66;1935;-23
2024/01/25 05:34:42;;;;;;;;;;;;;;;;;;2210834;58;2157;-22
2024/01/25 05:37:12;;;;;;;;;;;;;;;;;;2210384;66;1565;-22
2024/01/25 05:39:42;;;;;;;;;;;;;;;;;;2209920;58;2137;-23
2024/01/25 05:42:12;;;;;;;;;;;;;;;;;;2209810;58;1664;-24
2024/01/25 05:44:43;;;;;;;;;;;;;;;;;;2207413;59;1978;-23
2024/01/25 05:47:13;;;;;;;;;;;;;;;;;;2210392;58;2078;-23
2024/01/25 05:49:44;;;;;;;;;;;;;;;;;;2207306;58;2544;-23
2024/01/25 05:52:14;;;;;;;;;;;;;;;;;;2207851;58;2145;-23
2024/01/25 05:54:45;;;;;;;;;;;;;;;;;;2207566;66;1578;-23
2024/01/25 05:57:15;;;;;;;;;;;;;;;;;;2209751;59;2270;-21
2024/01/25 05:59:46;;;;;;;;;;;;;;;;;;2211287;66;1417;-22
2024/01/25 06:02:16;;;;;;;;;;;;;;;;;;2206557;59;2270;-23
2024/01/25 06:04:46;;;;;;;;;;;;;;;;;;2210791;58;7747;-22
2024/01/25 06:07:16;;;;;;;;;;;;;;;;;;2210345;59;1920;-23
2024/01/25 06:09:47;;;;;;;;;;;;;;;;;;2210942;58;2602;-20
2024/01/25 06:12:17;;;;;;;;;;;;;;;;;;2210630;66;2204;-20
2024/01/25 06:14:47;;;;;;;;;;;;;;;;;;2211059;59;2190;-20
2024/01/25 06:17:17;;;;;;;;;;;;;;;;;;2210775;66;2402;-23
2024/01/25 06:19:48;;;;;;;;;;;;;;;;;;2220633;58;2136;-23
2024/01/25 06:22:18;;;;;;;;;;;;;;;;;;2207921;58;1859;-23
2024/01/25 06:24:49;;;;;;;;;;;;;;;;;;2202969;58;2235;-22
2024/01/25 06:27:20;;;;;;;;;;;;;;;;;;2208781;58;3311;-23
2024/01/25 06:29:50;;;;;;;;;;;;;;;;;;2211816;59;2828;-23
2024/01/25 06:32:20;;;;;;;;;;;;;;;;;;2206337;66;1928;-22
2024/01/25 06:34:50;;;;;;;;;;;;;;;;;;2210981;59;2506;-23
2024/01/25 06:37:21;;;;;;;;;;;;;;;;;;2210875;66;2020;-23
2024/01/25 06:39:51;;;;;;;;;;;;;;;;;;2211288;58;2032;-22
2024/01/25 06:42:21;;;;;;;;;;;;;;;;;;2209433;66;1833;-22
2024/01/25 06:44:52;;;;;;;;;;;;;;;;;;2209156;66;1942;-23
2024/01/25 06:47:22;;;;;;;;;;;;;;;;;;2209964;59;2101;-22
2024/01/25 06:49:52;;;;;;;;;;;;;;;;;;2207170;58;1820;-22
2024/01/25 06:52:22;;;;;;;;;;;;;;;;;;2206484;59;2375;-23
2024/01/25 06:54:52;;;;;;;;;;;;;;;;;;2211680;66;2308;-21
2024/01/25 06:57:23;;;;;;;;;;;;;;;;;;2210693;66;2454;-23
2024/01/25 06:59:53;;;;;;;;;;;;;;;;;;2211702;66;1822;-21
2024/01/25 07:02:23;;;;;;;;;;;;;;;;;;2210512;59;1883;-22
2024/01/25 07:04:54;;;;;;;;;;;;;;;;;;2207153;58;2057;-23
2024/01/25 07:07:25;;;;;;;;;;;;;;;;;;2210783;58;3122;-22
2024/01/25 07:09:55;;;;;;;;;;;;;;;;;;2211535;66;1751;-22
2024/01/25 07:12:25;;;;;;;;;;;;;;;;;;2210518;66;2282;-22
2024/01/25 07:14:55;;;;;;;;;;;;;;;;;;2211515;66;1588;-23
2024/01/25 07:17:26;;;;;;;;;;;;;;;;;;2205848;59;2368;-23
2024/01/25 07:19:56;;;;;;;;;;;;;;;;;;2207754;66;2033;-23
2024/01/25 07:22:26;;;;;;;;;;;;;;;;;;2210181;66;2375;-22
2024/01/25 07:24:57;;;;;;;;;;;;;;;;;;2211573;58;2138;-22
2024/01/25 07:27:27;;;;;;;;;;;;;;;;;;2206261;59;2626;-21
2024/01/25 07:29:57;;;;;;;;;;;;;;;;;;2211549;58;1968;-23
2024/01/25 07:32:28;;;;;;;;;;;;;;;;;;2209805;66;2491;-21
2024/01/25 07:34:59;;;;;;;;;;;;;;;;;;2206696;59;2032;-21
2024/01/25 07:37:29;;;;;;;;;;;;;;;;;;2204304;66;2352;-22
2024/01/25 07:39:59;;;;;;;;;;;;;;;;;;2210574;66;1859;-21
2024/01/25 07:42:29;;;;;;;;;;;;;;;;;;2206080;58;1863;-22
2024/01/25 07:45:00;;;;;;;;;;;;;;;;;;2222565;58;2567;-21
2024/01/25 07:47:31;;;;;;;;;;;;;;;;;;2206823;58;2538;-21
2024/01/25 07:50:01;;;;;;;;;;;;;;;;;;2211186;58;2854;-21
2024/01/25 07:52:31;;;;;;;;;;;;;;;;;;2209810;58;3506;-22
2024/01/25 07:55:01;;;;;;;;;;;;;;;;;;2210951;59;1673;-23
2024/01/25 07:57:32;;;;;;;;;;;;;;;;;;2210379;63;1946;-21
2024/01/25 08:00:02;;;;;;;;;;;;;;;;;;2206964;66;2643;-22
2024/01/25 08:02:32;;;;;;;;;;;;;;;;;;2207243;59;2158;-23
2024/01/25 08:05:03;;;;;;;;;;;;;;;;;;2207312;59;2929;-23
2024/01/25 08:07:33;;;;;;;;;;;;;;;;;;2207038;58;1786;-22
2024/01/25 08:10:04;;;;;;;;;;;;;;;;;;2208375;66;2275;-22
2024/01/25 08:12:34;;;;;;;;;;;;;;;;;;2210063;58;1937;-21
2024/01/25 08:15:05;;;;;;;;;;;;;;;;;;2211061;59;1819;-23
2024/01/25 08:17:36;;;;;;;;;;;;;;;;;;2210499;59;2521;-23
2024/01/25 08:20:08;;;;;;;;;;;;;;;;;;2208208;59;1591;-23
2024/01/25 08:22:38;;;;;;;;;;;;;;;;;;2207320;58;1551;-20
2024/01/25 08:25:08;;;;;;;;;;;;;;;;;;2210919;59;2253;-20
2024/01/25 08:27:38;;;;;;;;;;;;;;;;;;2210586;59;1434;-20
2024/01/25 08:30:09;;;;;;;;;;;;;;;;;;2211286;58;1663;-20
2024/01/25 08:32:39;;;;;;;;;;;;;;;;;;2209909;59;1929;-20
2024/01/25 08:35:10;;;;;;;;;;;;;;;;;;2211647;66;1652;-19
2024/01/25 08:37:40;;;;;;;;;;;;;;;;;;2203531;59;2207;-20
2024/01/25 08:40:10;;;;;;;;;;;;;;;;;;2208597;66;2214;-19
2024/01/25 08:42:41;;;;;;;;;;;;;;;;;;2206255;66;1393;-19
2024/01/25 08:45:11;;;;;;;;;;;;;;;;;;2211163;67;1693;-20
2024/01/25 08:47:41;;;;;;;;;;;;;;;;;;2205621;67;1713;-19
2024/01/25 08:50:12;;;;;;;;;;;;;;;;;;2209246;59;1870;-20
2024/01/25 08:52:43;;;;;;;;;;;;;;;;;;2206859;59;1933;-19
2024/01/25 08:55:13;;;;;;;;;;;;;;;;;;2211387;66;1581;-19
2024/01/25 08:57:44;;;;;;;;;;;;;;;;;;2210986;59;1571;-19
2024/01/25 09:00:15;;;;;;;;;;;;;;;;;;2211462;66;1502;-19
2024/01/25 09:02:45;;;;;;;;;;;;;;;;;;2210852;59;1663;-20
2024/01/25 09:05:16;;;;;;;;;;;;;;;;;;2211703;59;1707;-20
2024/01/25 09:07:47;;;;;;;;;;;;;;;;;;2205833;59;1864;-21
2024/01/25 09:10:18;;;;;;;;;;;;;;;;;;2207917;58;2335;-20
2024/01/25 09:12:48;;;;;;;;;;;;;;;;;;2211893;58;1933;-20
2024/01/25 09:15:18;;;;;;;;;;;;;;;;;;2206886;58;2420;-20
2024/01/25 09:17:49;;;;;;;;;;;;;;;;;;2208510;59;1878;-19
2024/01/25 09:20:19;;;;;;;;;;;;;;;;;;2205765;59;2497;-19
2024/01/25 09:22:50;;;;;;;;;;;;;;;;;;2210861;58;1711;-19
2024/01/25 09:25:20;;;;;;;;;;;;;;;;;;2210465;58;1863;-23
2024/01/25 09:27:51;;;;;;;;;;;;;;;;;;2211222;59;1360;-22
2024/01/25 09:30:21;;;;;;;;;;;;;;;;;;2209769;66;1500;-24
2024/01/25 09:32:51;;;;;;;;;;;;;;;;;;2210102;66;1942;-23
2024/01/25 09:35:22;;;;;;;;;;;;;;;;;;2209691;58;2868;-23
2024/01/25 09:37:52;;;;;;;;;;;;;;;;;;2207328;58;2721;-28
2024/01/25 09:40:22;;;;;;;;;;;;;;;;;;2208638;59;3028;-20
2024/01/25 09:42:53;;;;;;;;;;;;;;;;;;2208785;58;2471;-20
2024/01/25 09:45:23;;;;;;;;;;;;;;;;;;2204067;58;2313;-19
2024/01/25 09:47:54;;;;;;;;;;;;;;;;;;2210205;59;1733;-19
2024/01/25 09:50:24;;;;;;;;;;;;;;;;;;2205874;59;1843;-19
2024/01/25 09:52:57;;;;;;;;;;;;;;;;;;2204662;59;2827;-22
2024/01/25 09:55:27;;;;;;;;;;;;;;;;;;2209378;59;1471;-23
2024/01/25 09:57:57;;;;;;;;;;;;;;;;;;2210497;58;2220;-22
2024/01/25 10:00:28;;;;;;;;;;;;;;;;;;2209332;58;2257;-22
2024/01/25 10:02:58;;;;;;;;;;;;;;;;;;2207554;58;1780;-24
2024/01/25 10:05:28;;;;;;;;;;;;;;;;;;2205938;59;2275;-23
2024/01/25 10:08:01;;;;;;;;;;;;;;;;;;2207480;59;2277;-21
2024/01/25 10:10:32;;;;;;;;;;;;;;;;;;2209315;59;3148;-22
2024/01/25 10:13:03;;;;;;;;;;;;;;;;;;2211340;66;1940;-22
2024/01/25 10:15:33;;;;;;;;;;;;;;;;;;2206835;59;2511;-22
2024/01/25 10:18:04;;;;;;;;;;;;;;;;;;2210225;58;2401;-23
2024/01/25 10:20:34;;;;;;;;;;;;;;;;;;2207327;66;1704;-22
2024/01/25 10:23:05;;;;;;;;;;;;;;;;;;2210778;59;2707;-22
2024/01/25 10:25:35;;;;;;;;;;;;;;;;;;2210114;58;1965;-23
2024/01/25 10:28:07;;;;;;;;;;;;;;;;;;2207526;58;1612;-23
2024/01/25 10:30:38;;;;;;;;;;;;;;;;;;2207251;59;1920;-23
2024/01/25 10:33:09;;;;;;;;;;;;;;;;;;2211283;66;1674;-21
2024/01/25 10:35:41;;;;;;;;;;;;;;;;;;2209920;58;2600;-22
2024/01/25 10:38:11;;;;;;;;;;;;;;;;;;2211955;58;1479;-21
2024/01/25 10:40:42;;;;;;;;;;;;;;;;;;2210694;66;1203;-21
2024/01/25 10:43:12;;;;;;;;;;;;;;;;;;2211331;58;2344;-22
2024/01/25 10:45:42;;;;;;;;;;;;;;;;;;2206132;59;1397;-21
2024/01/25 10:48:13;;;;;;;;;;;;;;;;;;2223750;58;2915;-21
2024/01/25 10:50:45;;;;;;;;;;;;;;;;;;2210585;59;2062;-22
2024/01/25 10:53:16;;;;;;;;;;;;;;;;;;2210949;58;1351;-21
2024/01/25 10:55:47;;;;;;;;;;;;;;;;;;2207051;59;1677;-22
2024/01/25 10:58:17;;;;;;;;;;;;;;;;;;2209022;58;1768;-21
2024/01/25 11:00:51;;;;;;;;;;;;;;;;;;2209920;58;2372;-22
2024/01/25 11:03:25;;;;;;;;;;;;;;;;;;2207549;59;1755;-19
2024/01/25 11:06:11;;;;;;;;;;;;;;;;;;2208348;59;1194;-19
2024/01/25 11:08:41;;;;;;;;;;;;;;;;;;2222864;58;1636;-19
2024/01/25 11:11:13;;;;;;;;;;;;;;;;;;2211306;66;1925;-19
2024/01/25 11:13:44;;;;;;;;;;;;;;;;;;2210663;58;1653;-19
2024/01/25 11:16:15;;;;;;;;;;;;;;;;;;2210805;59;2255;-19
2024/01/25 11:18:53;;;;;;;;;;;;;;;;;;2210236;58;1942;-20
2024/01/25 11:21:43;;;;;;;;;;;;;;;;;;2223329;66;1508;-19
2024/01/25 11:24:14;;;;;;;;;;;;;;;;;;2211726;58;1549;-19
2024/01/25 11:26:45;;;;;;;;;;;;;;;;;;2204756;58;2359;-19
2024/01/25 11:29:16;;;;;;;;;;;;;;;;;;2211056;58;1563;-19
2024/01/25 11:31:47;;;;;;;;;;;;;;;;;;2209916;59;1947;-19
2024/01/25 11:34:17;;;;;;;;;;;;;;;;;;2211188;59;1519;-19
2024/01/25 11:36:48;;;;;;;;;;;;;;;;;;2204701;59;3598;-19
2024/01/25 11:39:18;;;;;;;;;;;;;;;;;;2205929;58;2687;-20
2024/01/25 11:41:50;;;;;;;;;;;;;;;;;;2206022;58;3913;-20
2024/01/25 11:44:24;;;;;;;;;;;;;;;;;;2207014;59;2277;-19
2024/01/25 11:46:55;;;;;;;;;;;;;;;;;;2207866;59;2195;-20
2024/01/25 11:49:25;;;;;;;;;;;;;;;;;;2211881;58;3166;-20
2024/01/25 11:51:58;;;;;;;;;;;;;;;;;;2206500;59;1983;-20
2024/01/25 11:54:28;;;;;;;;;;;;;;;;;;2211469;58;2097;-19
2024/01/25 11:56:59;;;;;;;;;;;;;;;;;;2209479;59;1700;-20
2024/01/25 11:59:29;;;;;;;;;;;;;;;;;;2211153;66;1764;-26
2024/01/25 12:02:00;;;;;;;;;;;;;;;;;;2209876;59;1379;-21
2024/01/25 12:04:30;;;;;;;;;;;;;;;;;;2222245;58;2598;-23
2024/01/25 12:07:00;;;;;;;;;;;;;;;;;;2209858;59;1541;-21
2024/01/25 12:09:30;;;;;;;;;;;;;;;;;;2210915;58;1852;-23
2024/01/25 12:12:01;;;;;;;;;;;;;;;;;;2210283;58;2311;-23
2024/01/25 12:14:31;;;;;;;;;;;;;;;;;;2211057;59;1332;-23
2024/01/25 12:17:03;;;;;;;;;;;;;;;;;;2210936;59;2390;-22
2024/01/25 12:19:34;;;;;;;;;;;;;;;;;;2210836;66;1582;-23
2024/01/25 12:22:04;;;;;;;;;;;;;;;;;;2207251;59;2538;-23
2024/01/25 12:24:35;;;;;;;;;;;;;;;;;;2206436;58;2707;-22
2024/01/25 12:27:05;;;;;;;;;;;;;;;;;;2206056;59;3837;-23
2024/01/25 12:29:35;;;;;;;;;;;;;;;;;;2207016;59;2449;-21
2024/01/25 12:32:05;;;;;;;;;;;;;;;;;;2211495;59;2545;-23
2024/01/25 12:34:37;;;;;;;;;;;;;;;;;;2206390;58;2618;-23
2024/01/25 12:37:07;;;;;;;;;;;;;;;;;;2211994;59;1633;-23
2024/01/25 12:39:39;;;;;;;;;;;;;;;;;;2206870;59;2161;-23
2024/01/25 12:42:09;;;;;;;;;;;;;;;;;;2210507;58;1824;-22
2024/01/25 12:44:39;;;;;;;;;;;;;;;;;;2210772;58;2464;-22
2024/01/25 12:47:10;;;;;;;;;;;;;;;;;;2207868;66;1452;-24
2024/01/25 12:49:41;;;;;;;;;;;;;;;;;;2209946;58;1559;-22
2024/01/25 12:52:12;;;;;;;;;;;;;;;;;;2207721;59;1937;-22
2024/01/25 12:54:42;;;;;;;;;;;;;;;;;;2207088;66;1533;-23
2024/01/25 12:57:12;;;;;;;;;;;;;;;;;;2211913;59;1481;-22
2024/01/25 12:59:43;;;;;;;;;;;;;;;;;;2210608;66;1521;-20
2024/01/25 13:02:13;;;;;;;;;;;;;;;;;;2211322;59;1694;-21
2024/01/25 13:04:43;;;;;;;;;;;;;;;;;;2209415;58;2591;-22
2024/01/25 13:07:13;;;;;;;;;;;;;;;;;;2211478;58;1952;-22
2024/01/25 13:09:44;;;;;;;;;;;;;;;;;;2209564;66;1389;-22
2024/01/25 13:12:14;;;;;;;;;;;;;;;;;;2207208;66;1937;-23
2024/01/25 13:14:44;;;;;;;;;;;;;;;;;;2210252;58;2379;-22
2024/01/25 13:17:14;;;;;;;;;;;;;;;;;;2212066;58;2497;-22
2024/01/25 13:19:45;;;;;;;;;;;;;;;;;;2222023;66;1579;-23
2024/01/25 13:22:17;;;;;;;;;;;;;;;;;;2207492;59;2001;-21
2024/01/25 13:24:47;;;;;;;;;;;;;;;;;;2210706;58;2083;-22
2024/01/25 13:27:17;;;;;;;;;;;;;;;;;;2211060;58;1556;-22
2024/01/25 13:29:47;;;;;;;;;;;;;;;;;;2207162;59;2255;-22
2024/01/25 13:32:18;;;;;;;;;;;;;;;;;;2211164;66;1933;-23
2024/01/25 13:34:48;;;;;;;;;;;;;;;;;;2210358;58;1826;-22
2024/01/25 13:37:18;;;;;;;;;;;;;;;;;;2207631;66;1387;-21
2024/01/25 13:39:49;;;;;;;;;;;;;;;;;;2207069;58;1842;-21
2024/01/25 13:42:19;;;;;;;;;;;;;;;;;;2211014;59;2562;-22
2024/01/25 13:44:49;;;;;;;;;;;;;;;;;;2210514;66;1672;-22
2024/01/25 13:47:19;;;;;;;;;;;;;;;;;;2205514;59;1870;-22
2024/01/25 13:49:50;;;;;;;;;;;;;;;;;;2206528;58;1993;-22
2024/01/25 13:52:20;;;;;;;;;;;;;;;;;;2206535;59;2409;-21
2024/01/25 13:54:51;;;;;;;;;;;;;;;;;;2210116;58;1403;-23
2024/01/25 13:57:23;;;;;;;;;;;;;;;;;;2205940;59;1795;-19
2024/01/25 13:59:53;;;;;;;;;;;;;;;;;;2205040;59;2149;-19
2024/01/25 14:02:24;;;;;;;;;;;;;;;;;;2209186;59;1528;-19
2024/01/25 14:04:54;;;;;;;;;;;;;;;;;;2205892;58;2630;-19
2024/01/25 14:07:24;;;;;;;;;;;;;;;;;;2205124;58;1974;-19
2024/01/25 14:09:55;;;;;;;;;;;;;;;;;;2206230;58;3179;-19
2024/01/25 14:12:25;;;;;;;;;;;;;;;;;;2207499;58;3559;-20
2024/01/25 14:14:55;;;;;;;;;;;;;;;;;;2208666;59;2195;-19
2024/01/25 14:17:26;;;;;;;;;;;;;;;;;;2209165;58;2877;-20
2024/01/25 14:19:56;;;;;;;;;;;;;;;;;;2208745;58;2817;-20
2024/01/25 14:22:28;;;;;;;;;;;;;;;;;;2210589;59;2256;-22
2024/01/25 14:24:58;;;;;;;;;;;;;;;;;;2210225;59;1735;-21
2024/01/25 14:27:28;;;;;;;;;;;;;;;;;;2210946;58;2930;-22
2024/01/25 14:30:00;;;;;;;;;;;;;;;;;;2209741;58;2109;-21
2024/01/25 14:32:30;;;;;;;;;;;;;;;;;;2211336;58;2387;-22
2024/01/25 14:35:00;;;;;;;;;;;;;;;;;;2209593;59;2158;-21
2024/01/25 14:37:31;;;;;;;;;;;;;;;;;;2204949;59;1730;-22
2024/01/25 14:40:02;;;;;;;;;;;;;;;;;;2206789;58;1723;-19
2024/01/25 14:42:32;;;;;;;;;;;;;;;;;;2210194;58;3100;-19
2024/01/25 14:45:03;;;;;;;;;;;;;;;;;;2209741;59;1699;-19
2024/01/25 14:47:33;;;;;;;;;;;;;;;;;;2211368;58;1456;-19
2024/01/25 14:50:04;;;;;;;;;;;;;;;;;;2205382;59;1688;-19
2024/01/25 14:52:34;;;;;;;;;;;;;;;;;;2207499;58;2602;-19
2024/01/25 14:55:05;;;;;;;;;;;;;;;;;;2208547;58;2098;-19
2024/01/25 14:57:35;;;;;;;;;;;;;;;;;;2209920;59;2084;-19
2024/01/25 15:00:06;;;;;;;;;;;;;;;;;;2208771;66;1656;-19
2024/01/25 15:02:36;;;;;;;;;;;;;;;;;;2209192;58;2132;-19
2024/01/25 15:05:06;;;;;;;;;;;;;;;;;;2207954;58;1577;-19
2024/01/25 15:07:38;;;;;;;;;;;;;;;;;;2210845;58;1959;-19
2024/01/25 15:10:09;;;;;;;;;;;;;;;;;;2208907;58;1811;-19
2024/01/25 15:12:39;;;;;;;;;;;;;;;;;;2201518;59;3346;-19
2024/01/25 15:15:09;;;;;;;;;;;;;;;;;;2205828;58;2358;-22
2024/01/25 15:17:40;;;;;;;;;;;;;;;;;;2210195;58;2125;-22
2024/01/25 15:20:10;;;;;;;;;;;;;;;;;;2208891;58;1882;-22
2024/01/25 15:22:40;;;;;;;;;;;;;;;;;;2209493;58;2067;-22
2024/01/25 15:25:11;;;;;;;;;;;;;;;;;;2208361;58;2039;-20
2024/01/25 15:27:42;;;;;;;;;;;;;;;;;;2208046;58;2741;-21
2024/01/25 15:30:12;;;;;;;;;;;;;;;;;;2206498;59;2554;-21
2024/01/25 15:32:45;;;;;;;;;;;;;;;;;;2208868;58;2246;-22
2024/01/25 15:35:16;;;;;;;;;;;;;;;;;;2206228;66;1949;-22
2024/01/25 15:37:46;;;;;;;;;;;;;;;;;;2209034;59;1953;-22
2024/01/25 15:40:17;;;;;;;;;;;;;;;;;;2209515;58;1858;-21
2024/01/25 15:42:51;;;;;;;;;;;;;;;;;;2201681;66;1890;-23
2024/01/25 15:45:21;;;;;;;;;;;;;;;;;;2204440;66;2233;-23
2024/01/25 15:47:52;;;;;;;;;;;;;;;;;;2206274;59;1877;-22
2024/01/25 15:50:22;;;;;;;;;;;;;;;;;;2205415;58;2272;-23
2024/01/25 15:52:55;;;;;;;;;;;;;;;;;;2206379;58;3130;-23
2024/01/25 15:55:28;;;;;;;;;;;;;;;;;;2208400;58;2338;-22
2024/01/25 15:58:01;;;;;;;;;;;;;;;;;;2203881;59;2744;-20
2024/01/25 16:00:31;;;;;;;;;;;;;;;;;;2207620;59;2339;-21
2024/01/25 16:03:01;;;;;;;;;;;;;;;;;;2208596;58;2357;-22
2024/01/25 16:05:32;;;;;;;;;;;;;;;;;;2210446;58;3139;-23
2024/01/25 16:08:03;;;;;;;;;;;;;;;;;;2208226;58;2377;-20
2024/01/25 16:10:33;;;;;;;;;;;;;;;;;;2209414;59;2295;-21
2024/01/25 16:13:03;;;;;;;;;;;;;;;;;;2204904;59;3030;-21
2024/01/25 16:15:33;;;;;;;;;;;;;;;;;;2205323;59;2649;-22
2024/01/25 16:18:04;;;;;;;;;;;;;;;;;;2205787;58;3514;-22
2024/01/25 16:20:35;;;;;;;;;;;;;;;;;;2206578;59;2415;-21
2024/01/25 16:23:05;;;;;;;;;;;;;;;;;;2216565;58;2639;-21
2024/01/25 16:25:35;;;;;;;;;;;;;;;;;;2206726;58;2578;-21
2024/01/25 16:28:06;;;;;;;;;;;;;;;;;;2202418;58;2556;-22
2024/01/25 16:30:36;;;;;;;;;;;;;;;;;;2204745;59;2714;-21
2024/01/25 16:33:07;;;;;;;;;;;;;;;;;;2201227;59;2212;-22
2024/01/25 16:35:37;;;;;;;;;;;;;;;;;;2208436;58;3212;-22
2024/01/25 16:38:07;;;;;;;;;;;;;;;;;;2202395;58;2310;-21
2024/01/25 16:40:37;;;;;;;;;;;;;;;;;;2204414;59;4976;-22
2024/01/25 16:43:08;;;;;;;;;;;;;;;;;;2206031;59;2254;-22
2024/01/25 16:45:38;;;;;;;;;;;;;;;;;;2206038;66;1803;-21
2024/01/25 16:48:09;;;;;;;;;;;;;;;;;;2202464;59;2281;-21
2024/01/25 16:50:39;;;;;;;;;;;;;;;;;;2205935;58;2262;-22
2024/01/25 16:53:09;;;;;;;;;;;;;;;;;;2204642;59;1947;-21
2024/01/25 16:55:40;;;;;;;;;;;;;;;;;;2210948;58;2129;-20
2024/01/25 16:58:10;;;;;;;;;;;;;;;;;;2210009;66;1958;-19
2024/01/25 17:00:40;;;;;;;;;;;;;;;;;;2211301;58;2228;-19
2024/01/25 17:03:10;;;;;;;;;;;;;;;;;;2207850;58;2458;-19
2024/01/25 17:05:41;;;;;;;;;;;;;;;;;;2211878;58;2361;-18
2024/01/25 17:08:11;;;;;;;;;;;;;;;;;;2207574;59;1884;-19
2024/01/25 17:10:41;;;;;;;;;;;;;;;;;;2207637;58;2515;-18
2024/01/25 17:13:11;;;;;;;;;;;;;;;;;;2209501;59;2977;-19
2024/01/25 17:15:42;;;;;;;;;;;;;;;;;;2211386;59;2675;-19
2024/01/25 17:18:12;;;;;;;;;;;;;;;;;;2206429;59;2490;-19
2024/01/25 17:20:42;;;;;;;;;;;;;;;;;;2211053;66;2446;-19
2024/01/25 17:23:13;;;;;;;;;;;;;;;;;;2209379;58;2389;-18
2024/01/25 17:25:43;;;;;;;;;;;;;;;;;;2206452;58;2008;-18